createdAt,value
2018-12-17T00:00:31.225Z,24.00
2018-12-17T00:02:58.630Z,26.53
2018-12-17T00:05:26.034Z,25.27
2018-12-17T00:07:53.471Z,25.57
2018-12-17T00:10:20.874Z,26.60
2018-12-17T00:12:48.282Z,25.67
2018-12-17T00:15:15.767Z,23.47
2018-12-17T00:17:43.188Z,25.37
2018-12-17T00:20:10.798Z,25.20
2018-12-17T00:22:38.218Z,24.57
2018-12-17T00:25:05.935Z,26.33
2018-12-17T00:27:33.331Z,26.23
2018-12-17T00:30:00.730Z,25.87
2018-12-17T00:32:28.137Z,25.07
2018-12-17T00:34:55.526Z,26.93
2018-12-17T00:37:22.946Z,27.50
2018-12-17T00:39:50.338Z,28.20
2018-12-17T00:42:17.735Z,25.90
2018-12-17T00:44:45.129Z,24.40
2018-12-17T00:47:12.575Z,26.57
2018-12-17T00:49:40.026Z,26.23
2018-12-17T00:52:07.430Z,24.70
2018-12-17T00:54:34.823Z,25.10
2018-12-17T00:57:02.282Z,25.40
2018-12-17T00:59:29.759Z,25.77
2018-12-17T01:01:57.566Z,24.90
2018-12-17T01:04:24.972Z,25.97
2018-12-17T01:06:52.441Z,24.83
2018-12-17T01:09:19.834Z,25.20
2018-12-17T01:11:47.236Z,24.50
2018-12-17T01:14:14.702Z,27.03
2018-12-17T01:16:42.106Z,25.63
2018-12-17T01:19:09.498Z,23.37
2018-12-17T01:21:37.095Z,24.67
2018-12-17T01:24:04.494Z,25.47
2018-12-17T01:26:31.889Z,24.63
2018-12-17T01:28:59.293Z,25.53
2018-12-17T01:31:26.793Z,26.47
2018-12-17T01:33:54.262Z,24.10
2018-12-17T01:36:21.656Z,24.80
2018-12-17T01:38:49.053Z,23.37
2018-12-17T01:41:16.524Z,25.60
2018-12-17T01:43:43.984Z,23.43
2018-12-17T01:46:11.436Z,24.67
2018-12-17T01:48:38.895Z,23.90
2018-12-17T01:51:06.346Z,22.47
2018-12-17T01:53:33.803Z,22.83
2018-12-17T01:56:01.397Z,23.80
2018-12-17T01:58:29.355Z,24.30
2018-12-17T02:00:57.082Z,23.25
2018-12-17T02:03:24.655Z,22.97
2018-12-17T02:05:52.054Z,25.73
2018-12-17T02:08:19.462Z,26.07
2018-12-17T02:10:46.918Z,25.30
2018-12-17T02:13:14.380Z,25.57
2018-12-17T02:15:41.837Z,25.00
2018-12-17T02:18:09.290Z,24.07
2018-12-17T02:20:36.751Z,24.40
2018-12-17T02:23:04.169Z,23.63
2018-12-17T02:25:31.637Z,22.60
2018-12-17T02:27:59.320Z,23.77
2018-12-17T02:30:26.695Z,23.13
2018-12-17T02:32:54.176Z,24.67
2018-12-17T02:35:21.586Z,25.13
2018-12-17T02:37:48.982Z,22.80
2018-12-17T02:40:16.365Z,24.97
2018-12-17T02:42:43.763Z,25.33
2018-12-17T02:45:11.314Z,24.30
2018-12-17T02:47:38.710Z,26.30
2018-12-17T02:50:06.126Z,26.47
2018-12-17T02:52:33.582Z,25.70
2018-12-17T02:55:01.263Z,26.67
2018-12-17T02:57:28.806Z,24.17
2018-12-17T02:59:56.266Z,23.27
2018-12-17T03:02:23.653Z,24.17
2018-12-17T03:04:51.077Z,27.50
2018-12-17T03:07:18.531Z,25.63
2018-12-17T03:09:46.091Z,25.73
2018-12-17T03:12:13.550Z,24.10
2018-12-17T03:14:41.102Z,25.10
2018-12-17T03:17:08.558Z,25.30
2018-12-17T03:19:36.246Z,26.37
2018-12-17T03:22:03.779Z,26.23
2018-12-17T03:24:31.239Z,27.57
2018-12-17T03:26:58.642Z,26.80
2018-12-17T03:29:26.052Z,25.87
2018-12-17T03:31:53.451Z,26.27
2018-12-17T03:34:20.957Z,27.27
2018-12-17T03:36:48.415Z,25.60
2018-12-17T03:39:15.881Z,28.37
2018-12-17T03:41:43.334Z,28.13
2018-12-17T03:44:10.738Z,26.47
2018-12-17T03:46:38.123Z,29.27
2018-12-17T03:49:05.628Z,27.53
2018-12-17T03:51:33.163Z,26.33
2018-12-17T03:54:00.620Z,27.10
2018-12-17T03:56:28.013Z,26.07
2018-12-17T03:58:59.278Z,25.27
2018-12-17T04:01:24.839Z,25.77
2018-12-17T04:03:52.231Z,27.50
2018-12-17T04:06:19.656Z,26.37
2018-12-17T04:08:47.210Z,25.90
2018-12-17T04:11:14.658Z,26.20
2018-12-17T04:13:42.219Z,27.27
2018-12-17T04:16:09.675Z,25.90
2018-12-17T04:18:37.274Z,27.43
2018-12-17T04:21:04.690Z,25.87
2018-12-17T04:23:32.076Z,27.37
2018-12-17T04:25:59.461Z,27.40
2018-12-17T04:28:26.964Z,28.70
2018-12-17T04:30:54.523Z,28.33
2018-12-17T04:33:21.983Z,27.60
2018-12-17T04:35:49.386Z,27.47
2018-12-17T04:38:16.787Z,26.87
2018-12-17T04:40:44.179Z,29.00
2018-12-17T04:43:11.607Z,28.40
2018-12-17T04:45:39.153Z,30.47
2018-12-17T04:48:06.619Z,28.90
2018-12-17T04:50:34.012Z,30.40
2018-12-17T04:53:01.403Z,29.30
2018-12-17T04:55:28.798Z,29.30
2018-12-17T04:57:56.200Z,31.53
2018-12-17T05:00:23.695Z,30.00
2018-12-17T05:02:51.161Z,30.43
2018-12-17T05:05:18.606Z,28.90
2018-12-17T05:07:46.081Z,30.23
2018-12-17T05:10:13.514Z,31.20
2018-12-17T05:12:40.987Z,32.30
2018-12-17T05:15:08.453Z,29.10
2018-12-17T05:17:35.890Z,29.80
2018-12-17T05:20:03.487Z,30.70
2018-12-17T05:22:30.904Z,32.97
2018-12-17T05:24:58.303Z,32.10
2018-12-17T05:27:25.704Z,31.80
2018-12-17T05:29:53.110Z,33.10
2018-12-17T05:32:20.502Z,31.73
2018-12-17T05:34:47.900Z,31.90
2018-12-17T05:37:15.333Z,32.50
2018-12-17T05:39:42.799Z,33.00
2018-12-17T05:42:10.202Z,33.13
2018-12-17T05:44:37.711Z,35.40
2018-12-17T05:47:05.175Z,33.00
2018-12-17T05:49:32.642Z,34.90
2018-12-17T05:52:00.187Z,32.80
2018-12-17T05:54:27.576Z,34.90
2018-12-17T05:56:54.994Z,33.03
2018-12-17T05:59:28.381Z,35.20
2018-12-17T06:01:51.839Z,35.27
2018-12-17T06:04:19.318Z,34.03
2018-12-17T06:06:46.724Z,33.23
2018-12-17T06:09:14.403Z,34.77
2018-12-17T06:11:41.823Z,34.97
2018-12-17T06:14:09.243Z,37.33
2018-12-17T06:16:36.699Z,33.20
2018-12-17T06:19:04.167Z,37.47
2018-12-17T06:21:31.566Z,36.10
2018-12-17T06:23:58.954Z,34.90
2018-12-17T06:26:26.423Z,33.67
2018-12-17T06:28:53.875Z,34.73
2018-12-17T06:31:21.339Z,37.67
2018-12-17T06:33:48.734Z,34.67
2018-12-17T06:36:16.122Z,36.67
2018-12-17T06:38:43.601Z,34.53
2018-12-17T06:41:11.064Z,37.17
2018-12-17T06:43:38.514Z,35.77
2018-12-17T06:46:05.915Z,33.83
2018-12-17T06:48:33.334Z,32.40
2018-12-17T06:51:00.783Z,34.50
2018-12-17T06:53:28.243Z,33.40
2018-12-17T06:55:55.643Z,33.43
2018-12-17T06:58:23.451Z,34.30
2018-12-17T07:00:50.918Z,37.03
2018-12-17T07:03:18.383Z,33.20
2018-12-17T07:05:45.770Z,33.70
2018-12-17T07:08:15.078Z,31.90
2018-12-17T07:10:42.481Z,32.10
2018-12-17T07:13:09.879Z,33.47
2018-12-17T07:15:37.270Z,30.90
2018-12-17T07:18:04.760Z,31.50
2018-12-17T07:20:32.154Z,33.60
2018-12-17T07:22:59.593Z,33.43
2018-12-17T07:25:27.022Z,33.77
2018-12-17T07:27:54.492Z,30.40
2018-12-17T07:30:22.038Z,30.87
2018-12-17T07:32:49.439Z,33.57
2018-12-17T07:35:16.849Z,33.17
2018-12-17T07:37:44.311Z,32.27
2018-12-17T07:40:11.701Z,30.10
2018-12-17T07:42:39.118Z,32.77
2018-12-17T07:45:06.789Z,32.73
2018-12-17T07:47:34.234Z,30.00
2018-12-17T07:50:01.633Z,31.40
2018-12-17T07:52:29.046Z,32.13
2018-12-17T07:54:56.505Z,31.83
2018-12-17T07:57:23.966Z,31.00
2018-12-17T07:59:56.702Z,30.30
2018-12-17T08:02:20.827Z,32.20
2018-12-17T08:04:48.216Z,30.40
2018-12-17T08:07:15.607Z,30.90
2018-12-17T08:09:43.091Z,28.97
2018-12-17T08:12:10.649Z,29.60
2018-12-17T08:14:38.202Z,29.87
2018-12-17T08:17:05.606Z,27.87
2018-12-17T08:19:33.013Z,29.93
2018-12-17T08:22:00.470Z,30.27
2018-12-17T08:24:28.642Z,28.50
2018-12-17T08:26:56.206Z,27.30
2018-12-17T08:29:23.599Z,30.63
2018-12-17T08:31:51.023Z,27.13
2018-12-17T08:34:18.483Z,30.20
2018-12-17T08:36:45.930Z,27.03
2018-12-17T08:39:13.386Z,28.40
2018-12-17T08:41:40.851Z,29.77
2018-12-17T08:44:08.255Z,28.93
2018-12-17T08:46:35.638Z,29.93
2018-12-17T08:49:03.026Z,25.57
2018-12-17T08:51:30.470Z,30.33
2018-12-17T08:53:57.933Z,28.90
2018-12-17T08:56:25.387Z,26.83
2018-12-17T08:58:52.778Z,26.43
2018-12-17T09:01:20.170Z,27.43
2018-12-17T09:03:47.575Z,28.53
2018-12-17T09:06:15.514Z,27.83
2018-12-17T09:08:42.922Z,25.70
2018-12-17T09:11:10.305Z,25.43
2018-12-17T09:13:37.786Z,25.63
2018-12-17T09:16:05.243Z,25.23
2018-12-17T09:18:32.702Z,26.47
2018-12-17T09:21:00.094Z,26.10
2018-12-17T09:23:27.613Z,26.00
2018-12-17T09:25:55.071Z,26.03
2018-12-17T09:28:22.522Z,25.60
2018-12-17T09:30:49.982Z,26.63
2018-12-17T09:33:17.439Z,24.53
2018-12-17T09:35:44.842Z,25.00
2018-12-17T09:38:12.229Z,24.40
2018-12-17T09:40:39.711Z,25.87
2018-12-17T09:43:07.215Z,20.70
2018-12-17T09:45:34.611Z,25.00
2018-12-17T09:48:02.084Z,25.33
2018-12-17T09:50:29.638Z,25.97
2018-12-17T09:52:57.096Z,26.90
2018-12-17T09:55:24.683Z,26.27
2018-12-17T09:57:52.111Z,25.77
2018-12-17T10:00:25.398Z,25.80
2018-12-17T10:02:48.951Z,24.97
2018-12-17T10:05:16.439Z,23.07
2018-12-17T10:07:43.971Z,24.53
2018-12-17T10:10:11.561Z,23.73
2018-12-17T10:12:39.106Z,23.17
2018-12-17T10:15:06.811Z,24.20
2018-12-17T10:17:34.198Z,24.90
2018-12-17T10:20:01.678Z,24.23
2018-12-17T10:22:29.134Z,23.53
2018-12-17T10:24:56.602Z,21.83
2018-12-17T10:27:24.070Z,20.83
2018-12-17T10:29:51.469Z,22.70
2018-12-17T10:32:18.963Z,23.92
2018-12-17T10:34:46.355Z,19.33
2018-12-17T10:37:13.774Z,21.50
2018-12-17T10:39:41.190Z,25.00
2018-12-17T10:42:08.584Z,21.27
2018-12-17T10:44:36.064Z,21.63
2018-12-17T10:47:03.546Z,22.13
2018-12-17T10:49:31.058Z,22.80
2018-12-17T10:51:58.525Z,20.07
2018-12-17T10:54:25.997Z,20.40
2018-12-17T10:56:53.436Z,21.30
2018-12-17T10:59:20.887Z,21.60
2018-12-17T11:01:53.738Z,19.57
2018-12-17T11:04:23.033Z,20.03
2018-12-17T11:06:50.462Z,19.10
2018-12-17T11:09:17.910Z,19.73
2018-12-17T11:11:45.438Z,19.50
2018-12-17T11:14:12.904Z,21.57
2018-12-17T11:16:40.453Z,20.87
2018-12-17T11:19:07.925Z,19.57
2018-12-17T11:21:35.370Z,21.23
2018-12-17T11:24:02.832Z,21.53
2018-12-17T11:26:30.310Z,19.93
2018-12-17T11:28:57.700Z,19.10
2018-12-17T11:31:25.206Z,19.10
2018-12-17T11:33:52.599Z,19.47
2018-12-17T11:36:20.010Z,18.73
2018-12-17T11:38:47.399Z,18.47
2018-12-17T11:41:14.807Z,19.13
2018-12-17T11:43:43.966Z,17.33
2018-12-17T11:46:11.655Z,17.60
2018-12-17T11:48:39.482Z,19.93
2018-12-17T11:51:06.938Z,17.50
2018-12-17T11:53:34.330Z,17.60
2018-12-17T11:56:01.721Z,17.63
2018-12-17T11:58:29.175Z,17.07
2018-12-17T12:00:57.674Z,18.07
2018-12-17T12:03:25.075Z,15.70
2018-12-17T12:05:52.535Z,17.57
2018-12-17T12:08:19.937Z,16.07
2018-12-17T12:10:47.329Z,18.50
2018-12-17T12:13:14.737Z,18.37
2018-12-17T12:15:42.287Z,17.30
2018-12-17T12:18:09.695Z,15.77
2018-12-17T12:20:37.082Z,18.60
2018-12-17T12:23:04.486Z,17.80
2018-12-17T12:25:31.964Z,17.10
2018-12-17T12:27:59.403Z,18.83
2018-12-17T12:30:26.843Z,16.83
2018-12-17T12:32:54.248Z,16.00
2018-12-17T12:35:21.646Z,15.80
2018-12-17T12:37:49.094Z,15.73
2018-12-17T12:40:16.483Z,16.27
2018-12-17T12:42:43.886Z,15.40
2018-12-17T12:45:11.372Z,16.37
2018-12-17T12:47:38.781Z,16.63
2018-12-17T12:50:08.098Z,15.77
2018-12-17T12:52:35.598Z,16.43
2018-12-17T12:55:03.115Z,17.53
2018-12-17T12:57:30.674Z,14.70
2018-12-17T12:59:58.071Z,16.40
2018-12-17T13:02:25.471Z,14.80
2018-12-17T13:04:52.983Z,14.70
2018-12-17T13:07:20.379Z,16.10
2018-12-17T13:09:47.786Z,14.63
2018-12-17T13:12:15.198Z,16.27
2018-12-17T13:14:42.597Z,17.70
2018-12-17T13:17:15.708Z,14.20
2018-12-17T13:19:43.167Z,15.40
2018-12-17T13:22:10.546Z,14.20
2018-12-17T13:24:37.945Z,15.20
2018-12-17T13:27:05.367Z,13.43
2018-12-17T13:29:32.766Z,13.53
2018-12-17T13:32:00.220Z,13.60
2018-12-17T13:34:27.636Z,14.73
2018-12-17T13:36:55.035Z,14.13
2018-12-17T13:39:22.451Z,14.50
2018-12-17T13:41:49.831Z,13.63
2018-12-17T13:44:17.294Z,13.20
2018-12-17T13:46:44.750Z,13.87
2018-12-17T13:49:12.160Z,12.80
2018-12-17T13:51:41.458Z,11.10
2018-12-17T13:54:08.930Z,12.90
2018-12-17T13:56:36.314Z,12.43
2018-12-17T13:59:03.779Z,12.27
2018-12-17T14:01:31.230Z,12.73
2018-12-17T14:03:58.790Z,13.50
2018-12-17T14:06:26.251Z,12.33
2018-12-17T14:08:53.810Z,12.43
2018-12-17T14:11:21.271Z,11.80
2018-12-17T14:13:48.657Z,12.30
2018-12-17T14:16:16.083Z,10.87
2018-12-17T14:18:49.080Z,11.50
2018-12-17T14:21:21.998Z,11.00
2018-12-17T14:23:49.403Z,10.47
2018-12-17T14:26:16.864Z,11.20
2018-12-17T14:28:44.314Z,10.77
2018-12-17T14:31:11.779Z,11.77
2018-12-17T14:33:39.173Z,13.27
2018-12-17T14:36:08.556Z,12.13
2018-12-17T14:38:36.357Z,12.07
2018-12-17T14:41:03.755Z,10.70
2018-12-17T14:43:31.142Z,11.40
2018-12-17T14:45:58.568Z,10.03
2018-12-17T14:48:25.953Z,11.10
2018-12-17T14:50:53.359Z,11.83
2018-12-17T14:53:20.838Z,11.10
2018-12-17T14:55:48.252Z,10.63
2018-12-17T14:58:15.646Z,10.53
2018-12-17T15:00:43.103Z,10.70
2018-12-17T15:03:10.563Z,10.23
2018-12-17T15:05:37.971Z,10.63
2018-12-17T15:08:05.486Z,11.23
2018-12-17T15:10:32.931Z,10.63
2018-12-17T15:13:00.394Z,10.27
2018-12-17T15:15:27.838Z,10.20
2018-12-17T15:17:55.299Z,10.23
2018-12-17T15:20:22.760Z,9.40
2018-12-17T15:22:50.151Z,9.97
2018-12-17T15:25:17.560Z,10.03
2018-12-17T15:27:45.126Z,10.20
2018-12-17T15:30:12.529Z,10.07
2018-12-17T15:32:39.910Z,11.80
2018-12-17T15:35:07.398Z,11.20
2018-12-17T15:37:34.850Z,11.40
2018-12-17T15:40:02.244Z,11.20
2018-12-17T15:42:29.675Z,10.03
2018-12-17T15:44:57.129Z,11.00
2018-12-17T15:47:24.588Z,10.27
2018-12-17T15:49:51.990Z,10.87
2018-12-17T15:52:19.396Z,10.53
2018-12-17T15:54:46.853Z,9.73
2018-12-17T15:57:14.257Z,10.50
2018-12-17T15:59:41.771Z,10.50
2018-12-17T16:02:09.434Z,9.20
2018-12-17T16:04:36.822Z,10.07
2018-12-17T16:07:04.247Z,10.60
2018-12-17T16:09:31.690Z,9.97
2018-12-17T16:11:59.085Z,10.40
2018-12-17T16:14:26.541Z,11.77
2018-12-17T16:16:53.959Z,10.57
2018-12-17T16:19:21.342Z,10.93
2018-12-17T16:21:48.770Z,11.67
2018-12-17T16:24:16.159Z,10.27
2018-12-17T16:26:43.631Z,10.70
2018-12-17T16:29:11.022Z,10.93
2018-12-17T16:31:38.414Z,10.07
2018-12-17T16:34:05.846Z,11.60
2018-12-17T16:36:33.353Z,11.27
2018-12-17T16:39:00.746Z,11.10
2018-12-17T16:41:28.218Z,12.53
2018-12-17T16:43:55.607Z,12.20
2018-12-17T16:46:23.030Z,13.67
2018-12-17T16:48:50.496Z,13.57
2018-12-17T16:51:17.945Z,12.57
2018-12-17T16:53:45.347Z,12.10
2018-12-17T16:56:12.751Z,12.47
2018-12-17T16:58:40.146Z,12.20
2018-12-17T17:01:07.538Z,11.53
2018-12-17T17:03:35.026Z,13.00
2018-12-17T17:06:02.426Z,12.90
2018-12-17T17:08:29.845Z,13.70
2018-12-17T17:10:57.298Z,14.50
2018-12-17T17:13:24.698Z,14.70
2018-12-17T17:15:52.102Z,14.83
2018-12-17T17:18:19.502Z,13.43
2018-12-17T17:20:46.934Z,39.07
2018-12-17T17:23:14.494Z,12.60
2018-12-17T17:25:41.886Z,13.43
2018-12-17T17:28:09.285Z,13.30
2018-12-17T17:30:36.679Z,14.67
2018-12-17T17:33:04.081Z,15.50
2018-12-17T17:35:31.557Z,15.70
2018-12-17T17:37:59.010Z,14.83
2018-12-17T17:40:26.586Z,17.23
2018-12-17T17:42:54.106Z,16.63
2018-12-17T17:45:21.595Z,15.70
2018-12-17T17:47:49.146Z,28.20
2018-12-17T17:50:16.606Z,31.30
2018-12-17T17:52:43.998Z,16.00
2018-12-17T17:55:11.385Z,15.33
2018-12-17T17:57:38.776Z,16.53
2018-12-17T18:00:08.779Z,16.77
2018-12-17T18:02:36.170Z,16.27
2018-12-17T18:05:04.323Z,17.30
2018-12-17T18:07:31.700Z,16.40
2018-12-17T18:09:59.138Z,15.47
2018-12-17T18:12:26.825Z,15.57
2018-12-17T18:14:54.247Z,17.17
2018-12-17T18:17:21.702Z,16.50
2018-12-17T18:19:49.170Z,16.20
2018-12-17T18:22:16.582Z,17.00
2018-12-17T18:24:43.976Z,16.17
2018-12-17T18:27:11.438Z,17.27
2018-12-17T18:29:38.909Z,17.10
2018-12-17T18:32:06.298Z,16.20
2018-12-17T18:34:33.697Z,20.90
2018-12-17T18:37:01.167Z,20.73
2018-12-17T18:39:28.570Z,39.77
2018-12-17T18:41:56.082Z,21.60
2018-12-17T18:44:23.533Z,18.20
2018-12-17T18:46:51.008Z,22.73
2018-12-17T18:49:18.541Z,19.87
2018-12-17T18:51:45.937Z,19.03
2018-12-17T18:54:13.329Z,21.10
2018-12-17T18:56:40.819Z,21.30
2018-12-17T18:59:08.199Z,22.17
2018-12-17T19:01:35.602Z,20.77
2018-12-17T19:04:03.013Z,18.60
2018-12-17T19:06:30.430Z,20.37
2018-12-17T19:08:57.886Z,22.40
2018-12-17T19:11:25.281Z,22.57
2018-12-17T19:13:52.698Z,21.30
2018-12-17T19:16:20.100Z,21.60
2018-12-17T19:18:47.491Z,22.90
2018-12-17T19:21:14.890Z,22.43
2018-12-17T19:23:42.335Z,24.20
2018-12-17T19:26:09.829Z,24.60
2018-12-17T19:28:37.294Z,25.40
2018-12-17T19:31:04.700Z,24.82
2018-12-17T19:33:32.082Z,25.50
2018-12-17T19:35:59.483Z,24.23
2018-12-17T19:38:26.961Z,22.73
2018-12-17T19:40:54.438Z,24.80
2018-12-17T19:43:21.832Z,24.83
2018-12-17T19:45:49.335Z,25.77
2018-12-17T19:48:16.797Z,28.80
2018-12-17T19:50:44.202Z,26.90
2018-12-17T19:53:11.579Z,30.30
2018-12-17T19:55:39.064Z,30.33
2018-12-17T19:58:06.455Z,29.70
2018-12-17T20:00:33.854Z,29.47
2018-12-17T20:03:01.452Z,28.73
2018-12-17T20:05:28.847Z,31.87
2018-12-17T20:07:56.262Z,31.90
2018-12-17T20:10:25.573Z,31.87
2018-12-17T20:12:52.974Z,32.60
2018-12-17T20:15:20.396Z,30.40
2018-12-17T20:17:47.805Z,31.20
2018-12-17T20:20:15.214Z,32.30
2018-12-17T20:22:42.690Z,30.97
2018-12-17T20:25:10.136Z,30.30
2018-12-17T20:27:37.527Z,30.13
2018-12-17T20:30:06.840Z,31.60
2018-12-17T20:32:34.574Z,34.90
2018-12-17T20:35:02.098Z,34.90
2018-12-17T20:37:29.514Z,32.20
2018-12-17T20:39:56.978Z,32.33
2018-12-17T20:42:24.479Z,33.50
2018-12-17T20:44:51.882Z,34.00
2018-12-17T20:47:19.346Z,37.20
2018-12-17T20:49:46.815Z,33.70
2018-12-17T20:52:14.334Z,33.50
2018-12-17T20:54:41.722Z,34.10
2018-12-17T20:57:09.121Z,35.60
2018-12-17T20:59:36.512Z,33.70
2018-12-17T21:02:04.008Z,34.30
2018-12-17T21:04:31.548Z,34.10
2018-12-17T21:06:58.966Z,35.27
2018-12-17T21:09:26.451Z,35.17
2018-12-17T21:11:53.938Z,36.20
2018-12-17T21:14:23.792Z,35.73
2018-12-17T21:16:50.974Z,33.93
2018-12-17T21:19:18.435Z,36.00
2018-12-17T21:21:45.827Z,34.27
2018-12-17T21:24:13.338Z,35.73
2018-12-17T21:26:40.738Z,33.20
2018-12-17T21:29:08.155Z,34.80
2018-12-17T21:31:35.590Z,35.37
2018-12-17T21:34:02.986Z,31.60
2018-12-17T21:36:30.435Z,35.80
2018-12-17T21:38:57.826Z,34.40
2018-12-17T21:41:25.224Z,35.53
2018-12-17T21:43:52.694Z,33.37
2018-12-17T21:46:20.252Z,34.33
2018-12-17T21:48:47.642Z,33.37
2018-12-17T21:51:15.038Z,32.03
2018-12-17T21:53:42.431Z,33.37
2018-12-17T21:56:09.896Z,32.63
2018-12-17T21:58:37.286Z,35.10
2018-12-17T22:01:04.702Z,33.20
2018-12-17T22:03:32.142Z,33.13
2018-12-17T22:05:59.602Z,33.37
2018-12-17T22:08:26.989Z,32.90
2018-12-17T22:10:54.509Z,32.47
2018-12-17T22:13:21.975Z,32.37
2018-12-17T22:15:49.366Z,33.50
2018-12-17T22:18:16.782Z,33.00
2018-12-17T22:20:44.198Z,33.40
2018-12-17T22:23:11.602Z,31.10
2018-12-17T22:25:38.982Z,32.30
2018-12-17T22:28:06.400Z,32.47
2018-12-17T22:30:33.798Z,32.23
2018-12-17T22:33:01.223Z,31.87
2018-12-17T22:35:28.614Z,34.20
2018-12-17T22:37:56.031Z,31.80
2018-12-17T22:40:23.452Z,30.83
2018-12-17T22:42:50.948Z,31.40
2018-12-17T22:45:18.326Z,32.57
2018-12-17T22:47:45.727Z,32.97
2018-12-17T22:50:13.211Z,35.77
2018-12-17T22:52:40.781Z,32.97
2018-12-17T22:55:08.354Z,32.30
2018-12-17T22:57:35.750Z,34.03
2018-12-17T23:00:04.838Z,30.87
2018-12-17T23:02:32.226Z,31.70
2018-12-17T23:05:00.615Z,34.97
2018-12-17T23:07:28.014Z,34.10
2018-12-17T23:10:07.509Z,33.60
2018-12-17T23:12:46.846Z,32.20
2018-12-17T23:15:26.073Z,34.33
2018-12-17T23:17:53.023Z,34.57
2018-12-17T23:20:20.623Z,34.10
2018-12-17T23:22:48.351Z,35.27
2018-12-17T23:25:15.802Z,33.77
2018-12-17T23:27:47.250Z,35.17
2018-12-17T23:30:14.951Z,33.20
2018-12-17T23:32:42.334Z,34.00
2018-12-17T23:35:09.834Z,33.17
2018-12-17T23:37:37.244Z,32.53
2018-12-17T23:40:05.237Z,33.70
2018-12-17T23:42:32.712Z,35.07
2018-12-17T23:45:00.119Z,33.20
2018-12-17T23:47:27.543Z,33.80
2018-12-17T23:49:54.938Z,34.30
2018-12-17T23:52:22.324Z,35.47
2018-12-17T23:54:49.800Z,35.30
2018-12-17T23:57:17.183Z,32.70
2018-12-17T23:59:44.598Z,31.27
